Time;durP1;ratioP1;P1;durP2;ratioP2;P2;SDS_P1;SDS_P2;PMS_P1;PMS_P2;Temp;Humidity;BMP_temperature;BMP_pressure;BME280_temperature;BME280_humidity;BME280_pressure;Samples;Min_cycle;Max_cycle;Signal;HPM_P1;HPM_P2
2022/10/17 00:00:59;;;;;;;;;;;;;;;20.63;50.87;101328.91;5126193;27;19932;-41
2022/10/17 00:03:24;;;;;;;;;;;;;;;20.63;50.96;101324.19;5123285;27;19948;-39
2022/10/17 00:05:50;;;;;;;;;;;;;;;20.64;50.87;101322.25;5125387;27;19927;-40
2022/10/17 00:08:16;;;;;;;;;;;;;;;20.63;50.82;101323.38;5122478;27;19934;-41
2022/10/17 00:10:41;;;;;;;;;;;;;;;20.63;50.86;101321.41;5121684;27;20360;-39
2022/10/17 00:13:07;;;;;;;;;;;;;;;20.63;51.00;101321.41;5128030;27;20696;-39
2022/10/17 00:15:33;;;;;;;;;;;;;;;20.63;50.85;101318.66;5121455;27;19935;-42
2022/10/17 00:17:59;;;;;;;;;;;;;;;20.63;51.02;101312.28;5124600;27;19950;-39
2022/10/17 00:20:24;;;;;;;;;;;;;;;20.63;50.95;101304.00;5126614;27;19934;-39
2022/10/17 00:22:50;;;;;;;;;;;;;;;20.63;51.00;101302.06;5121655;27;19942;-38
2022/10/17 00:25:16;;;;;;;;;;;;;;;20.62;51.10;101305.94;5127065;27;20028;-40
2022/10/17 00:27:41;;;;;;;;;;;;;;;20.63;50.91;101302.06;5124252;27;19994;-40
2022/10/17 00:30:09;;;;;;;;;;;;;;;20.63;50.94;101306.75;5121350;27;20382;-39
2022/10/17 00:32:34;;;;;;;;;;;;;;;20.63;51.05;101304.81;5116544;27;20015;-39
2022/10/17 00:35:00;;;;;;;;;;;;;;;20.62;50.96;101305.94;5119446;27;19923;-39
2022/10/17 00:37:25;;;;;;;;;;;;;;;20.64;51.03;101313.94;5124175;27;19938;-39
2022/10/17 00:39:51;;;;;;;;;;;;;;;20.62;50.92;101314.25;5123390;27;19923;-38
2022/10/17 00:42:16;;;;;;;;;;;;;;;20.62;50.77;101317.00;5122549;27;20345;-39
2022/10/17 00:44:46;;;;;;;;;;;;;;;20.62;50.85;101314.25;5120476;27;19931;-38
2022/10/17 00:47:13;;;;;;;;;;;;;;;20.64;50.99;101316.72;5124459;27;19971;-39
2022/10/17 00:49:39;;;;;;;;;;;;;;;20.63;50.84;101306.75;5125536;27;20046;-39
2022/10/17 00:52:09;;;;;;;;;;;;;;;20.63;50.87;101304.81;5129277;27;19924;-39
2022/10/17 00:54:36;;;;;;;;;;;;;;;20.63;50.96;101306.75;5119267;27;19969;-40
2022/10/17 00:57:01;;;;;;;;;;;;;;;20.64;51.00;101300.09;5127261;27;20022;-40
2022/10/17 00:59:27;;;;;;;;;;;;;;;20.62;50.84;101303.16;5129392;27;19924;-39
2022/10/17 01:01:55;;;;;;;;;;;;;;;20.63;50.92;101304.00;5126922;27;19972;-39
2022/10/17 01:04:21;;;;;;;;;;;;;;;20.64;50.85;101302.88;5126591;27;19955;-39
2022/10/17 01:06:46;;;;;;;;;;;;;;;20.64;50.89;101308.41;5124613;27;19943;-40
2022/10/17 01:09:12;;;;;;;;;;;;;;;20.63;50.85;101296.50;5132179;27;19931;-39
2022/10/17 01:11:49;;;;;;;;;;;;;;;20.62;50.88;101300.41;5127557;27;19923;-39
2022/10/17 01:14:27;;;;;;;;;;;;;;;20.63;50.86;101313.13;5121776;27;20070;-39
2022/10/17 01:17:12;;;;;;;;;;;;;;;20.62;50.86;101311.47;5119429;27;20020;-41
2022/10/17 01:19:57;;;;;;;;;;;;;;;20.64;50.72;101305.66;5119329;27;20014;-39
2022/10/17 01:22:27;;;;;;;;;;;;;;;20.63;50.88;101304.81;5120206;27;20069;-40
2022/10/17 01:27:38;;;;;;;;;;;;;;;20.63;50.87;101313.13;5180843;27;19925;-41
2022/10/17 01:30:10;;;;;;;;;;;;;;;20.63;50.90;101310.34;5155919;27;20034;-40
2022/10/17 01:32:37;;;;;;;;;;;;;;;20.62;50.85;101314.25;5154230;27;19984;-40
2022/10/17 01:35:06;;;;;;;;;;;;;;;20.63;51.03;101304.00;5153896;27;20319;-39
2022/10/17 01:37:32;;;;;;;;;;;;;;;20.63;50.87;101313.13;5150611;27;19951;-39
2022/10/17 01:40:02;;;;;;;;;;;;;;;20.63;51.00;101309.53;5156847;27;20159;-39
2022/10/17 01:42:36;;;;;;;;;;;;;;;20.64;50.86;101309.28;5132017;27;19931;-39
2022/10/17 01:45:12;;;;;;;;;;;;;;;20.63;50.88;101310.34;5136922;27;20044;-38
2022/10/17 01:47:37;;;;;;;;;;;;;;;20.65;51.06;101301.78;5131393;27;19967;-41
2022/10/17 01:50:04;;;;;;;;;;;;;;;20.63;50.90;101304.81;5148041;27;19989;-39
2022/10/17 01:52:39;;;;;;;;;;;;;;;20.64;50.90;101289.91;5157330;27;19927;-39
2022/10/17 01:55:07;;;;;;;;;;;;;;;20.63;50.98;101282.69;5132031;27;20375;-39
2022/10/17 01:57:35;;;;;;;;;;;;;;;20.64;51.02;101289.03;5154211;27;20393;-39
2022/10/17 02:00:02;;;;;;;;;;;;;;;20.65;50.91;101282.41;5154333;27;20010;-42
2022/10/17 02:02:27;;;;;;;;;;;;;;;20.64;50.86;101286.28;5150027;27;20396;-39
2022/10/17 02:04:53;;;;;;;;;;;;;;;20.63;50.92;101282.69;5152391;27;19931;-39
2022/10/17 02:07:19;;;;;;;;;;;;;;;20.63;50.79;101277.16;5135385;27;20374;-39
2022/10/17 02:09:44;;;;;;;;;;;;;;;20.63;51.04;101277.16;5156949;27;19930;-39
2022/10/17 02:12:15;;;;;;;;;;;;;;;20.64;51.08;101275.22;5151933;27;19927;-41
2022/10/17 02:15:00;;;;;;;;;;;;;;;20.64;50.86;101273.28;5138963;27;19962;-39
2022/10/17 02:17:43;;;;;;;;;;;;;;;20.63;50.92;101268.84;5135040;27;19924;-40
2022/10/17 02:20:14;;;;;;;;;;;;;;;20.64;50.85;101277.97;5128789;27;19973;-39
2022/10/17 02:22:42;;;;;;;;;;;;;;;20.64;51.00;101275.22;5133781;27;19973;-40
2022/10/17 02:25:11;;;;;;;;;;;;;;;20.64;50.84;101277.97;5158953;27;20441;-39
2022/10/17 02:27:42;;;;;;;;;;;;;;;20.64;50.86;101280.75;5148384;27;19977;-38
2022/10/17 02:30:27;;;;;;;;;;;;;;;20.64;50.95;101280.75;5157117;27;20459;-40
2022/10/17 02:32:54;;;;;;;;;;;;;;;20.63;50.87;101277.16;5142942;27;20014;-39
2022/10/17 02:35:20;;;;;;;;;;;;;;;20.64;50.93;101278.81;5157551;27;20390;-40
2022/10/17 02:37:45;;;;;;;;;;;;;;;20.64;50.92;101270.53;5143363;27;20339;-39
2022/10/17 02:40:13;;;;;;;;;;;;;;;20.63;51.07;101266.06;5133470;27;19931;-41
2022/10/17 02:42:38;;;;;;;;;;;;;;;20.64;51.02;101273.28;5139919;27;19979;-39
2022/10/17 02:45:04;;;;;;;;;;;;;;;20.64;51.03;101273.28;5127391;27;19931;-39
2022/10/17 02:47:32;;;;;;;;;;;;;;;20.64;51.06;101284.34;5138801;27;19923;-39
2022/10/17 02:49:57;;;;;;;;;;;;;;;20.65;50.81;101282.41;5125876;27;20014;-39
2022/10/17 02:52:27;;;;;;;;;;;;;;;20.63;50.90;101277.16;5135635;27;19984;-39
2022/10/17 02:54:56;;;;;;;;;;;;;;;20.64;51.03;101284.34;5138211;27;20049;-38
2022/10/17 02:57:23;;;;;;;;;;;;;;;20.63;51.04;101274.38;5140337;27;19927;-39
2022/10/17 02:59:49;;;;;;;;;;;;;;;20.64;50.97;101287.13;5116929;27;20017;-39
2022/10/17 03:02:15;;;;;;;;;;;;;;;20.64;50.99;101281.59;5133747;27;19943;-39
2022/10/17 03:04:42;;;;;;;;;;;;;;;20.63;51.13;101288.22;5118701;27;19927;-39
2022/10/17 03:07:07;;;;;;;;;;;;;;;20.63;50.85;101284.63;5114065;27;20045;-39
2022/10/17 03:09:33;;;;;;;;;;;;;;;20.64;50.96;101287.13;5135410;27;19931;-40
2022/10/17 03:11:59;;;;;;;;;;;;;;;20.63;50.92;101279.91;5135184;27;19990;-38
2022/10/17 03:14:24;;;;;;;;;;;;;;;20.64;50.99;101278.81;5136674;27;19931;-40
2022/10/17 03:16:50;;;;;;;;;;;;;;;20.64;51.02;101287.13;5130564;27;19924;-39
2022/10/17 03:19:15;;;;;;;;;;;;;;;20.64;51.02;101270.53;5135983;27;20481;-39
2022/10/17 03:21:41;;;;;;;;;;;;;;;20.64;50.85;101270.53;5141718;27;19931;-39
2022/10/17 03:24:06;;;;;;;;;;;;;;;20.64;50.84;101270.53;5132968;27;19923;-40
2022/10/17 03:26:32;;;;;;;;;;;;;;;20.64;50.83;101270.53;5136445;27;19923;-39
2022/10/17 03:28:58;;;;;;;;;;;;;;;20.64;50.96;101275.22;5140006;27;19930;-39
2022/10/17 03:31:23;;;;;;;;;;;;;;;20.64;50.91;101280.75;5138094;27;19939;-39
2022/10/17 03:33:49;;;;;;;;;;;;;;;20.64;51.08;101278.81;5139014;27;19996;-39
2022/10/17 03:36:15;;;;;;;;;;;;;;;20.64;50.84;101281.59;5133605;27;19938;-40
2022/10/17 03:38:41;;;;;;;;;;;;;;;20.65;51.09;101290.72;5134645;27;19974;-40
2022/10/17 03:41:07;;;;;;;;;;;;;;;20.64;51.16;101298.19;5115229;27;20150;-40
2022/10/17 03:43:32;;;;;;;;;;;;;;;20.65;51.01;101290.72;5131355;27;19924;-39
2022/10/17 03:45:58;;;;;;;;;;;;;;;20.65;51.05;101299.84;5115890;27;19930;-40
2022/10/17 03:48:24;;;;;;;;;;;;;;;20.64;50.93;101298.19;5119026;27;19931;-38
2022/10/17 03:50:49;;;;;;;;;;;;;;;20.64;50.97;101303.72;5130717;27;19942;-39
2022/10/17 03:53:15;;;;;;;;;;;;;;;20.64;51.05;101298.19;5137706;27;19942;-39
2022/10/17 03:55:40;;;;;;;;;;;;;;;20.64;50.99;101306.50;5137443;27;19946;-39
2022/10/17 03:58:06;;;;;;;;;;;;;;;20.65;51.09;101307.31;5135038;27;19931;-39
2022/10/17 04:00:32;;;;;;;;;;;;;;;20.64;50.97;101309.28;5134748;27;19939;-39
2022/10/17 04:02:57;;;;;;;;;;;;;;;20.64;50.97;101312.03;5143898;27;19999;-41
2022/10/17 04:05:23;;;;;;;;;;;;;;;20.64;50.84;101317.56;5138708;27;19939;-40
2022/10/17 04:07:48;;;;;;;;;;;;;;;20.65;50.82;101316.44;5137657;27;19969;-39
2022/10/17 04:10:14;;;;;;;;;;;;;;;20.65;50.94;101326.69;5132426;27;19931;-39
2022/10/17 04:12:39;;;;;;;;;;;;;;;20.65;51.03;101327.53;5137705;27;19927;-40
2022/10/17 04:15:05;;;;;;;;;;;;;;;20.65;51.16;101329.47;5136949;27;20343;-38
2022/10/17 04:17:31;;;;;;;;;;;;;;;20.65;51.08;101318.41;5114486;27;19958;-39
2022/10/17 04:20:03;;;;;;;;;;;;;;;20.64;50.94;101322.25;5130868;27;20021;-39
2022/10/17 04:22:29;;;;;;;;;;;;;;;20.65;51.08;101323.94;5140438;27;20358;-39
2022/10/17 04:24:55;;;;;;;;;;;;;;;20.66;51.10;101320.03;5142450;27;19923;-39
2022/10/17 04:27:20;;;;;;;;;;;;;;;20.64;51.07;101309.28;5135770;27;19923;-39
2022/10/17 04:29:46;;;;;;;;;;;;;;;20.65;50.90;101310.91;5135946;27;19923;-39
2022/10/17 04:32:11;;;;;;;;;;;;;;;20.64;51.11;101309.28;5141312;27;20252;-39
2022/10/17 04:34:37;;;;;;;;;;;;;;;20.65;51.06;101299.03;5135590;27;19937;-39
2022/10/17 04:37:02;;;;;;;;;;;;;;;20.64;51.01;101303.72;5133551;27;19932;-39
2022/10/17 04:39:28;;;;;;;;;;;;;;;20.65;51.09;101307.31;5131799;27;20310;-39
2022/10/17 04:41:55;;;;;;;;;;;;;;;20.65;51.06;101307.31;5119697;27;19927;-40
2022/10/17 04:44:21;;;;;;;;;;;;;;;20.64;51.14;101317.56;5115936;27;20014;-39
2022/10/17 04:46:46;;;;;;;;;;;;;;;20.64;51.11;101314.81;5127718;27;19938;-40
2022/10/17 04:49:12;;;;;;;;;;;;;;;20.63;50.92;101318.66;5135305;27;19924;-39
2022/10/17 04:51:37;;;;;;;;;;;;;;;20.64;51.01;101322.25;5133588;27;19930;-39
2022/10/17 04:54:03;;;;;;;;;;;;;;;20.63;50.91;101335.25;5140268;27;20386;-40
2022/10/17 04:56:29;;;;;;;;;;;;;;;20.64;50.91;101334.19;5139579;27;19923;-39
2022/10/17 04:58:54;;;;;;;;;;;;;;;20.64;50.94;101344.38;5129051;27;20066;-40
2022/10/17 05:01:20;;;;;;;;;;;;;;;20.63;51.10;101338.03;5126007;27;20302;-40
2022/10/17 05:03:46;;;;;;;;;;;;;;;20.64;51.07;101336.94;5107702;27;20271;-39
2022/10/17 05:06:13;;;;;;;;;;;;;;;20.64;51.00;101334.19;5125278;27;20413;-40
2022/10/17 05:08:39;;;;;;;;;;;;;;;20.64;50.98;101331.41;5136007;27;20022;-40
2022/10/17 05:11:05;;;;;;;;;;;;;;;20.65;51.02;101329.47;5114449;27;19975;-41
2022/10/17 05:13:31;;;;;;;;;;;;;;;20.64;50.98;101339.72;5115487;27;20284;-39
2022/10/17 05:15:58;;;;;;;;;;;;;;;20.63;50.98;101332.50;5104545;27;20006;-39
2022/10/17 05:18:24;;;;;;;;;;;;;;;20.64;50.96;101334.19;5113656;27;21255;-39
2022/10/17 05:20:49;;;;;;;;;;;;;;;20.64;50.99;101330.56;5132273;27;19927;-40
2022/10/17 05:23:15;;;;;;;;;;;;;;;20.65;51.18;101335.81;5134579;27;20378;-41
2022/10/17 05:25:40;;;;;;;;;;;;;;;20.64;50.93;101334.19;5134120;27;19931;-39
2022/10/17 05:28:06;;;;;;;;;;;;;;;20.65;51.14;101333.06;5134211;27;19930;-39
2022/10/17 05:30:33;;;;;;;;;;;;;;;20.65;51.02;101341.34;5116112;27;20428;-39
2022/10/17 05:33:02;;;;;;;;;;;;;;;20.64;51.08;101348.00;5112944;27;19928;-39
2022/10/17 05:35:27;;;;;;;;;;;;;;;20.66;51.16;101367.09;5133896;27;19976;-41
2022/10/17 05:37:53;;;;;;;;;;;;;;;20.65;51.25;101366.25;5123075;27;20289;-36
2022/10/17 05:40:18;;;;;;;;;;;;;;;20.45;54.83;101374.56;5130277;27;19928;-38
2022/10/17 05:42:44;;;;;;;;;;;;;;;20.54;54.67;101370.16;5131632;27;19935;-36
2022/10/17 05:45:10;;;;;;;;;;;;;;;20.64;53.58;101366.53;5131949;27;19992;-40
2022/10/17 05:47:35;;;;;;;;;;;;;;;20.68;52.95;101370.41;5123397;27;19932;-39
2022/10/17 05:50:01;;;;;;;;;;;;;;;20.70;53.13;101368.19;5119043;27;19928;-40
2022/10/17 05:52:26;;;;;;;;;;;;;;;20.70;52.84;101371.78;5137822;27;20373;-42
2022/10/17 05:54:53;;;;;;;;;;;;;;;20.68;53.26;101368.47;5130597;27;20389;-43
2022/10/17 05:57:18;;;;;;;;;;;;;;;20.71;53.35;101376.19;5105635;27;19928;-42
2022/10/17 05:59:44;;;;;;;;;;;;;;;20.71;53.10;101375.38;5105023;27;19936;-42
2022/10/17 06:02:11;;;;;;;;;;;;;;;20.72;53.08;101374.25;5107833;27;19939;-43
2022/10/17 06:04:36;;;;;;;;;;;;;;;20.71;53.09;101387.28;5072756;27;20332;-41
2022/10/17 06:07:02;;;;;;;;;;;;;;;20.73;53.16;101379.53;5104826;27;19931;-43
2022/10/17 06:09:27;;;;;;;;;;;;;;;20.72;52.96;101390.88;5106726;27;19932;-41
2022/10/17 06:11:53;;;;;;;;;;;;;;;20.72;52.89;101383.38;5112852;27;20373;-41
2022/10/17 06:14:19;;;;;;;;;;;;;;;20.72;53.01;101391.69;5110089;27;19927;-42
2022/10/17 06:16:44;;;;;;;;;;;;;;;20.71;52.91;101390.03;5110538;27;19931;-41
2022/10/17 06:19:10;;;;;;;;;;;;;;;20.73;52.81;101409.16;5118760;27;19942;-42
2022/10/17 06:21:37;;;;;;;;;;;;;;;20.73;53.12;101407.22;5121758;27;19928;-44
2022/10/17 06:24:03;;;;;;;;;;;;;;;20.73;52.93;101390.59;5117984;27;20366;-42
2022/10/17 06:26:28;;;;;;;;;;;;;;;20.73;52.89;101393.38;5118355;27;20426;-41
2022/10/17 06:28:54;;;;;;;;;;;;;;;20.73;52.85;101396.16;5121583;27;19935;-41
2022/10/17 06:31:19;;;;;;;;;;;;;;;20.73;52.81;101382.31;5098411;27;20363;-42
2022/10/17 06:33:45;;;;;;;;;;;;;;;20.75;52.90;101390.31;5119570;27;20290;-42
2022/10/17 06:36:12;;;;;;;;;;;;;;;20.74;52.85;101395.03;5119338;27;19938;-44
2022/10/17 06:38:37;;;;;;;;;;;;;;;20.76;52.61;101397.50;5101520;27;20259;-42
2022/10/17 06:41:07;;;;;;;;;;;;;;;20.76;52.62;101409.41;5123136;27;20332;-41
2022/10/17 06:43:32;;;;;;;;;;;;;;;20.77;52.60;101399.19;5101432;27;20383;-42
2022/10/17 06:45:58;;;;;;;;;;;;;;;20.77;52.53;101405.53;5111813;27;19946;-43
2022/10/17 06:48:23;;;;;;;;;;;;;;;20.78;52.50;101409.13;5109682;27;19927;-41
2022/10/17 06:50:49;;;;;;;;;;;;;;;20.79;52.59;101414.38;5108321;27;19931;-42
2022/10/17 06:53:14;;;;;;;;;;;;;;;20.80;52.51;101426.28;5110099;27;19931;-44
2022/10/17 06:55:41;;;;;;;;;;;;;;;20.79;52.58;101424.63;5097364;27;19931;-43
2022/10/17 06:58:07;;;;;;;;;;;;;;;20.78;52.71;101428.50;5096234;27;19989;-43
2022/10/17 07:00:32;;;;;;;;;;;;;;;20.79;52.42;101431.00;5108153;27;20382;-42
2022/10/17 07:02:58;;;;;;;;;;;;;;;20.79;52.41;101430.16;5082096;27;19931;-43
2022/10/17 07:05:24;;;;;;;;;;;;;;;20.79;52.55;101430.16;5096575;27;19939;-40
2022/10/17 07:07:49;;;;;;;;;;;;;;;20.79;52.56;101431.00;5096779;27;19932;-40
2022/10/17 07:10:17;;;;;;;;;;;;;;;20.79;52.50;101427.41;5101815;27;19931;-40
2022/10/17 07:12:44;;;;;;;;;;;;;;;20.79;52.57;101430.16;5085640;27;19939;-41
2022/10/17 07:15:10;;;;;;;;;;;;;;;20.80;52.33;101435.41;5103787;27;20018;-40
2022/10/17 07:17:35;;;;;;;;;;;;;;;20.79;52.56;101433.75;5113942;27;20004;-40
2022/10/17 07:20:01;;;;;;;;;;;;;;;20.79;52.54;101438.47;5112235;27;20037;-40
2022/10/17 07:22:27;;;;;;;;;;;;;;;20.79;52.44;101433.75;5114462;27;19934;-39
2022/10/17 07:24:52;;;;;;;;;;;;;;;20.79;52.44;101436.53;5105275;27;20383;-39
2022/10/17 07:27:18;;;;;;;;;;;;;;;20.79;52.42;101449.53;5100450;27;19935;-39
2022/10/17 07:29:43;;;;;;;;;;;;;;;20.80;52.42;101451.19;5105333;27;19927;-39
2022/10/17 07:32:09;;;;;;;;;;;;;;;20.80;52.48;101463.09;5104891;27;19931;-40
2022/10/17 07:34:35;;;;;;;;;;;;;;;20.80;52.49;101457.56;5101885;27;19927;-40
2022/10/17 07:37:00;;;;;;;;;;;;;;;20.80;52.35;101451.19;5102379;27;19977;-39
2022/10/17 07:39:26;;;;;;;;;;;;;;;20.80;52.37;101457.56;5096504;27;20248;-42
2022/10/17 07:41:52;;;;;;;;;;;;;;;20.81;52.55;101447.31;5113480;27;19927;-41
2022/10/17 07:44:17;;;;;;;;;;;;;;;20.80;52.34;101438.19;5115728;27;19924;-42
2022/10/17 07:46:43;;;;;;;;;;;;;;;20.80;52.41;101440.94;5114368;27;19999;-42
2022/10/17 07:49:08;;;;;;;;;;;;;;;20.81;52.33;101444.53;5117470;27;19932;-39
2022/10/17 07:51:34;;;;;;;;;;;;;;;20.82;52.30;101448.16;5108220;27;19931;-40
2022/10/17 07:53:59;;;;;;;;;;;;;;;20.81;52.20;101461.16;5119179;27;19942;-42
2022/10/17 07:56:25;;;;;;;;;;;;;;;20.82;52.32;101470.31;5109775;27;19932;-40
2022/10/17 07:58:51;;;;;;;;;;;;;;;20.81;52.39;101475.00;5112124;27;20391;-39
2022/10/17 08:01:17;;;;;;;;;;;;;;;20.82;52.46;101470.31;5112693;27;19931;-40
2022/10/17 08:03:43;;;;;;;;;;;;;;;20.82;52.35;101478.63;5110339;27;20395;-42
2022/10/17 08:06:09;;;;;;;;;;;;;;;20.82;52.32;101478.63;5089360;27;19978;-39
2022/10/17 08:08:34;;;;;;;;;;;;;;;20.83;52.35;101488.56;5104943;27;19932;-39
2022/10/17 08:11:01;;;;;;;;;;;;;;;20.82;52.26;101498.81;5106124;27;20255;-42
2022/10/17 08:13:27;;;;;;;;;;;;;;;20.82;52.20;101504.34;5082087;27;20425;-42
2022/10/17 08:15:52;;;;;;;;;;;;;;;20.82;52.32;101498.00;5107069;27;19935;-43
2022/10/17 08:18:18;;;;;;;;;;;;;;;20.89;54.87;101501.28;5104320;27;19939;-38
2022/10/17 08:20:43;;;;;;;;;;;;;;;21.38;53.00;101509.00;5116522;27;19931;-42
2022/10/17 08:23:09;;;;;;;;;;;;;;;21.15;56.83;101497.38;5115708;27;19962;-45
2022/10/17 08:25:37;;;;;;;;;;;;;;;20.99;55.22;101493.81;5117028;27;19935;-40
2022/10/17 08:28:02;;;;;;;;;;;;;;;20.93;54.48;101492.16;5101908;28;19923;-40
2022/10/17 08:30:29;;;;;;;;;;;;;;;20.90;54.50;101505.75;5102076;27;19983;-39
2022/10/17 08:32:55;;;;;;;;;;;;;;;20.89;54.37;101517.91;5109930;27;20017;-41
2022/10/17 08:35:21;;;;;;;;;;;;;;;20.88;54.19;101510.72;5095807;27;19932;-43
2022/10/17 08:37:47;;;;;;;;;;;;;;;20.87;54.22;101522.91;5109390;27;19932;-40
2022/10/17 08:40:16;;;;;;;;;;;;;;;20.88;54.08;101519.84;5103477;27;19931;-40
2022/10/17 08:42:46;;;;;;;;;;;;;;;20.87;53.93;101529.25;5106308;27;19998;-40
2022/10/17 08:45:32;;;;;;;;;;;;;;;20.87;53.96;101532.03;5107460;27;20101;-39
2022/10/17 08:47:59;;;;;;;;;;;;;;;20.93;54.78;101538.38;5097324;27;20407;-37
2022/10/17 08:50:27;;;;;;;;;;;;;;;20.94;54.32;101535.38;5113110;27;20011;-41
2022/10/17 08:52:54;;;;;;;;;;;;;;;20.93;54.02;101530.09;5099232;27;20008;-39
2022/10/17 08:55:28;;;;;;;;;;;;;;;20.93;54.04;101541.16;5116271;27;20018;-42
2022/10/17 08:57:54;;;;;;;;;;;;;;;20.91;53.99;101538.69;5111453;27;20016;-41
2022/10/17 09:00:19;;;;;;;;;;;;;;;20.92;55.51;101534.78;5107522;27;19974;-40
2022/10/17 09:02:49;;;;;;;;;;;;;;;20.92;54.29;101543.09;5110428;27;20218;-41
2022/10/17 09:05:32;;;;;;;;;;;;;;;20.92;53.88;101548.63;5106725;27;19970;-40
2022/10/17 09:08:02;;;;;;;;;;;;;;;20.91;54.18;101548.94;5113141;27;19971;-43
2022/10/17 09:10:34;;;;;;;;;;;;;;;20.92;53.90;101550.59;5110905;27;20435;-41
2022/10/17 09:13:05;;;;;;;;;;;;;;;20.90;57.37;101555.59;5122722;27;20025;-39
2022/10/17 09:15:52;;;;;;;;;;;;;;;20.93;54.75;101553.06;5119257;27;19935;-39
2022/10/17 09:18:23;;;;;;;;;;;;;;;20.95;56.40;101547.25;5102660;27;20027;-40
2022/10/17 09:20:50;;;;;;;;;;;;;;;20.96;55.76;101541.44;5093277;27;20022;-39
2022/10/17 09:23:17;;;;;;;;;;;;;;;20.96;54.70;101552.50;5118783;27;19951;-40
2022/10/17 09:25:44;;;;;;;;;;;;;;;20.97;54.81;101550.56;5115548;27;20014;-40
2022/10/17 09:28:11;;;;;;;;;;;;;;;20.97;54.55;101562.47;5115128;27;20019;-39
2022/10/17 09:30:41;;;;;;;;;;;;;;;20.95;54.34;101564.69;5119461;27;20003;-39
2022/10/17 09:33:13;;;;;;;;;;;;;;;20.96;54.32;101568.31;5113783;27;20031;-40
2022/10/17 09:35:59;;;;;;;;;;;;;;;20.98;54.89;101574.38;5099197;28;19936;-42
2022/10/17 09:38:25;;;;;;;;;;;;;;;20.98;54.22;101575.22;5106849;27;19932;-41
2022/10/17 09:40:53;;;;;;;;;;;;;;;20.97;54.35;101576.31;5103994;27;20026;-39
2022/10/17 09:43:23;;;;;;;;;;;;;;;20.99;54.20;101578.84;5107965;27;19931;-42
2022/10/17 09:45:55;;;;;;;;;;;;;;;20.98;54.11;101586.31;5099669;27;19981;-41
2022/10/17 09:48:29;;;;;;;;;;;;;;;21.00;55.09;101591.56;5108748;27;20349;-40
2022/10/17 09:50:55;;;;;;;;;;;;;;;20.99;54.38;101587.13;5106040;27;20162;-40
2022/10/17 09:53:43;;;;;;;;;;;;;;;20.99;54.08;101590.72;5100534;27;19938;-39
2022/10/17 09:56:13;;;;;;;;;;;;;;;21.00;54.07;101597.09;5114114;27;20475;-40
2022/10/17 09:58:39;;;;;;;;;;;;;;;21.00;54.11;101611.78;5116069;27;20034;-41
2022/10/17 10:01:15;;;;;;;;;;;;;;;20.99;54.15;101607.34;5116117;27;20030;-39
2022/10/17 10:03:49;;;;;;;;;;;;;;;21.01;54.17;101601.53;5118186;27;19924;-39
2022/10/17 10:06:16;;;;;;;;;;;;;;;21.00;53.99;101614.53;5098288;27;20063;-41
2022/10/17 10:08:57;;;;;;;;;;;;;;;21.01;54.05;101613.44;5092266;28;19967;-39
2022/10/17 10:11:24;;;;;;;;;;;;;;;21.02;54.59;101609.53;5113597;27;20475;-39
2022/10/17 10:13:49;;;;;;;;;;;;;;;21.02;54.54;101605.94;5117392;27;20014;-39
2022/10/17 10:16:19;;;;;;;;;;;;;;;21.02;54.40;101604.00;5095348;27;19932;-40
2022/10/17 10:18:45;;;;;;;;;;;;;;;21.02;54.31;101614.25;5093231;27;19943;-40
2022/10/17 10:21:17;;;;;;;;;;;;;;;21.03;54.24;101607.63;5102195;27;19973;-40
2022/10/17 10:23:43;;;;;;;;;;;;;;;21.03;54.38;101610.41;5105165;27;20030;-39
2022/10/17 10:26:14;;;;;;;;;;;;;;;20.96;56.95;101607.91;5115955;27;20031;-40
2022/10/17 10:28:49;;;;;;;;;;;;;;;21.01;55.51;101610.66;5084198;27;20088;-40
2022/10/17 10:31:15;;;;;;;;;;;;;;;21.04;54.93;101626.72;5115724;27;20533;-40
2022/10/17 10:33:41;;;;;;;;;;;;;;;21.03;54.62;101627.84;5116978;27;20362;-40
2022/10/17 10:36:07;;;;;;;;;;;;;;;21.05;54.84;101642.22;5097375;27;19939;-40
2022/10/17 10:38:33;;;;;;;;;;;;;;;21.05;54.59;101658.03;5100752;27;20312;-41
2022/10/17 10:41:03;;;;;;;;;;;;;;;21.05;54.57;101663.56;5095873;27;19960;-40
2022/10/17 10:43:32;;;;;;;;;;;;;;;21.05;54.38;101664.38;5121995;27;20109;-38
2022/10/17 10:45:57;;;;;;;;;;;;;;;21.05;54.33;101661.63;5098917;27;20062;-41
2022/10/17 10:48:24;;;;;;;;;;;;;;;21.06;54.46;101667.97;5113947;27;19967;-40
2022/10/17 10:51:08;;;;;;;;;;;;;;;21.07;54.20;101666.03;5104263;27;20342;-43
2022/10/17 10:53:37;;;;;;;;;;;;;;;21.07;54.34;101669.66;5104138;27;19966;-42
2022/10/17 10:56:05;;;;;;;;;;;;;;;21.12;56.18;101677.97;5112479;27;20035;-45
2022/10/17 11:01:41;;;;;;;;;;;;;;;21.12;54.78;101657.75;5164979;27;19937;-42
2022/10/17 11:04:26;;;;;;;;;;;;;;;21.11;54.76;101634.75;5142004;27;20022;-41
2022/10/17 11:06:52;;;;;;;;;;;;;;;21.11;54.87;101623.66;5143461;27;20014;-39
2022/10/17 11:09:23;;;;;;;;;;;;;;;21.10;54.56;101616.47;5145573;27;19926;-39
2022/10/17 11:11:52;;;;;;;;;;;;;;;21.11;55.31;101625.59;5133515;27;20026;-39
2022/10/17 11:14:20;;;;;;;;;;;;;;;21.11;54.85;101634.75;5150561;27;19954;-42
2022/10/17 11:16:49;;;;;;;;;;;;;;;21.12;55.54;101641.13;5126563;27;20010;-40
2022/10/17 11:19:23;;;;;;;;;;;;;;;21.12;55.67;101641.13;5149912;27;20022;-43
2022/10/17 11:22:06;;;;;;;;;;;;;;;21.11;55.18;101643.06;5134482;27;20672;-41
2022/10/17 11:24:35;;;;;;;;;;;;;;;21.12;55.75;101657.75;5155279;27;19962;-39
2022/10/17 11:27:02;;;;;;;;;;;;;;;21.12;54.83;101664.13;5157408;27;20042;-41
2022/10/17 11:29:29;;;;;;;;;;;;;;;21.12;54.77;101663.31;5141991;27;19934;-41
2022/10/17 11:31:55;;;;;;;;;;;;;;;21.13;54.59;101668.56;5136416;27;19967;-41
2022/10/17 11:34:22;;;;;;;;;;;;;;;21.13;54.63;101681.56;5112364;27;19959;-40
2022/10/17 11:36:49;;;;;;;;;;;;;;;21.12;54.82;101686.28;5127553;27;20018;-42
2022/10/17 11:39:26;;;;;;;;;;;;;;;21.14;54.62;101691.53;5109339;27;20320;-40
2022/10/17 11:42:00;;;;;;;;;;;;;;;21.14;54.85;101683.22;5139015;27;20418;-40
2022/10/17 11:44:31;;;;;;;;;;;;;;;21.14;55.14;101680.47;5138132;27;19923;-42
2022/10/17 11:46:58;;;;;;;;;;;;;;;21.13;54.70;101685.16;5136610;27;20022;-40
2022/10/17 11:49:27;;;;;;;;;;;;;;;21.13;54.66;101690.72;5135134;27;20014;-40
2022/10/17 11:52:05;;;;;;;;;;;;;;;21.13;54.23;101696.25;5116671;27;19942;-43
2022/10/17 11:54:34;;;;;;;;;;;;;;;21.14;54.30;101691.53;5137488;27;20015;-42
2022/10/17 11:57:11;;;;;;;;;;;;;;;21.14;54.25;101697.06;5118543;27;20360;-42
2022/10/17 11:59:59;;;;;;;;;;;;;;;21.15;54.42;101695.97;5137355;27;19950;-41
2022/10/17 12:02:35;;;;;;;;;;;;;;;21.15;54.25;101695.97;5124251;27;19931;-42
2022/10/17 12:05:05;;;;;;;;;;;;;;;21.15;54.35;101702.34;5135970;27;19974;-42
2022/10/17 12:07:36;;;;;;;;;;;;;;;21.14;54.36;101703.44;5136609;27;20062;-39
2022/10/17 12:10:12;;;;;;;;;;;;;;;21.14;54.44;101706.22;5137699;27;20050;-42
2022/10/17 12:12:39;;;;;;;;;;;;;;;21.15;54.07;101709.81;5128650;27;20013;-39
2022/10/17 12:18:02;;;;;;;;;;;;;;;21.13;55.95;101701.78;5158976;27;19925;-41
2022/10/17 12:20:29;;;;;;;;;;;;;;;21.15;55.21;101704.28;5136283;27;19923;-39
2022/10/17 12:23:01;;;;;;;;;;;;;;;21.15;55.12;101702.34;5128274;27;20007;-40
2022/10/17 12:25:29;;;;;;;;;;;;;;;21.16;55.00;101704.00;5135582;27;20505;-40
2022/10/17 12:28:15;;;;;;;;;;;;;;;21.16;55.00;101704.00;5129395;27;19962;-40
2022/10/17 12:30:48;;;;;;;;;;;;;;;21.16;55.00;101705.97;5105608;27;19982;-39
2022/10/17 12:33:21;;;;;;;;;;;;;;;21.17;54.85;101710.38;5111895;27;19963;-41
2022/10/17 12:35:48;;;;;;;;;;;;;;;21.15;54.83;101710.63;5093146;27;20384;-41
2022/10/17 12:38:17;;;;;;;;;;;;;;;21.16;54.71;101709.56;5079212;27;20010;-42
2022/10/17 12:43:19;;;;;;;;;;;;;;;21.17;54.67;101715.94;5158106;27;19933;-39
2022/10/17 12:45:49;;;;;;;;;;;;;;;21.15;54.76;101709.81;5149225;27;20115;-40
2022/10/17 12:48:34;;;;;;;;;;;;;;;21.15;54.67;101721.72;5133824;27;20017;-39
2022/10/17 12:51:01;;;;;;;;;;;;;;;21.16;54.68;101720.63;5131418;27;19969;-39